createdAt,value
2022-08-05T00:01:27.756Z,10.35
2022-08-05T00:11:35.099Z,9.85
2022-08-05T00:21:50.830Z,10.43
2022-08-05T00:32:12.615Z,10.57
2022-08-05T00:42:31.617Z,12.32
2022-08-05T00:52:34.136Z,12.02
2022-08-05T01:02:41.357Z,11.10
2022-08-05T01:13:05.013Z,10.77
2022-08-05T01:23:23.396Z,9.32
2022-08-05T01:33:35.529Z,11.95
2022-08-05T01:43:38.073Z,13.43
2022-08-05T01:53:58.047Z,18.60
2022-08-05T02:04:02.996Z,15.48
2022-08-05T02:14:17.593Z,13.60
2022-08-05T02:24:23.476Z,13.40
2022-08-05T02:34:29.952Z,13.57
2022-08-05T02:44:36.620Z,13.23
2022-08-05T02:54:42.254Z,13.93
2022-08-05T03:04:45.639Z,12.23
2022-08-05T03:14:48.202Z,12.13
2022-08-05T03:24:52.253Z,14.18
2022-08-05T03:34:54.531Z,14.38
2022-08-05T03:44:57.946Z,14.82
2022-08-05T03:56:09.781Z,13.73
2022-08-05T04:05:33.353Z,12.73
2022-08-05T04:15:36.892Z,13.70
2022-08-05T04:26:00.190Z,12.30
2022-08-05T04:36:15.849Z,11.82
2022-08-05T04:46:27.833Z,11.43
2022-08-05T04:56:34.913Z,9.68
2022-08-05T05:06:44.671Z,10.25
2022-08-05T05:16:51.210Z,10.70
2022-08-05T05:26:56.258Z,10.55
2022-08-05T05:36:59.143Z,8.77
2022-08-05T05:47:04.155Z,10.63
2022-08-05T05:57:06.448Z,10.50
2022-08-05T06:07:16.460Z,10.85
2022-08-05T06:17:24.615Z,11.85
2022-08-05T06:28:10.624Z,11.65
2022-08-05T06:37:57.878Z,12.43
2022-08-05T06:48:35.996Z,12.03
2022-08-05T06:58:35.257Z,19.30
2022-08-05T07:08:38.684Z,16.13
2022-08-05T07:18:47.860Z,17.77
2022-08-05T07:28:53.005Z,13.13
2022-08-05T07:38:56.168Z,12.73
2022-08-05T07:49:02.006Z,24.73
2022-08-05T07:59:08.597Z,21.30
2022-08-05T08:09:11.493Z,21.52
2022-08-05T08:20:10.201Z,40.30
2022-08-05T08:30:05.450Z,24.35
2022-08-05T08:39:57.222Z,23.02
2022-08-05T08:50:22.855Z,15.40
2022-08-05T09:00:20.935Z,13.52
2022-08-05T09:10:27.001Z,13.43
2022-08-05T09:20:37.836Z,14.98
2022-08-05T09:30:43.339Z,15.10
2022-08-05T09:40:52.678Z,24.17
2022-08-05T09:50:59.182Z,18.45
2022-08-05T10:01:14.822Z,16.80
2022-08-05T10:11:17.817Z,12.80
2022-08-05T10:21:19.774Z,14.27
2022-08-05T10:32:53.304Z,15.27
2022-08-05T10:42:00.753Z,15.40
2022-08-05T10:52:05.312Z,15.00
2022-08-05T11:02:37.550Z,13.45
2022-08-05T11:12:45.365Z,14.25
2022-08-05T11:22:54.022Z,14.30
2022-08-05T11:33:46.592Z,14.15
2022-08-05T11:44:06.729Z,12.93
2022-08-05T11:54:11.599Z,14.75
2022-08-05T12:04:15.741Z,13.18
2022-08-05T12:14:18.298Z,14.32
2022-08-05T12:24:21.448Z,13.25
2022-08-05T12:34:30.065Z,13.20
2022-08-05T12:44:34.374Z,14.60
2022-08-05T12:54:36.757Z,14.15
2022-08-05T13:04:52.594Z,13.18
2022-08-05T13:15:05.249Z,12.90
2022-08-05T13:25:19.488Z,13.38
2022-08-05T13:35:43.338Z,13.88
2022-08-05T13:45:47.069Z,13.43
2022-08-05T13:56:00.201Z,12.73
2022-08-05T14:06:04.993Z,13.35
2022-08-05T14:16:25.626Z,13.35
2022-08-05T14:26:38.438Z,13.95
2022-08-05T14:36:42.840Z,14.68
2022-08-05T14:46:50.594Z,14.10
2022-08-05T14:56:54.583Z,12.70
2022-08-05T15:06:56.763Z,14.97
2022-08-05T15:16:58.725Z,25.00
2022-08-05T15:27:03.403Z,14.02
2022-08-05T15:37:06.512Z,13.77
2022-08-05T15:47:09.092Z,12.65
2022-08-05T15:57:10.818Z,13.45
2022-08-05T16:07:13.283Z,12.77
2022-08-05T16:17:15.292Z,13.05
2022-08-05T16:27:17.837Z,13.32
2022-08-05T16:38:15.257Z,13.85
2022-08-05T16:47:53.472Z,14.00
2022-08-05T16:58:01.677Z,16.63
2022-08-05T17:08:05.482Z,11.35
2022-08-05T17:18:14.275Z,10.43
2022-08-05T17:28:17.026Z,11.82
2022-08-05T17:38:18.806Z,12.25
2022-08-05T17:48:20.952Z,13.23
2022-08-05T17:58:32.798Z,9.85
2022-08-05T18:08:34.871Z,10.43
2022-08-05T18:18:38.470Z,10.57
2022-08-05T18:28:42.112Z,10.80
2022-08-05T18:38:48.164Z,11.10
2022-08-05T18:48:52.680Z,10.85
2022-08-05T18:59:01.159Z,12.63
2022-08-05T19:09:04.077Z,11.63
2022-08-05T19:19:05.870Z,13.48
2022-08-05T19:29:11.167Z,14.82
2022-08-05T19:39:12.985Z,16.77
2022-08-05T19:49:21.844Z,13.23
2022-08-05T19:59:56.514Z,19.33
2022-08-05T20:09:55.076Z,22.25
2022-08-05T20:19:58.523Z,18.75
2022-08-05T20:30:00.347Z,15.07
2022-08-05T20:40:04.300Z,15.18
2022-08-05T20:50:07.519Z,20.02
2022-08-05T21:00:40.235Z,18.75
2022-08-05T21:10:34.330Z,16.85
2022-08-05T21:20:36.156Z,13.88
2022-08-05T21:30:39.380Z,14.68
2022-08-05T21:40:42.963Z,13.95
2022-08-05T21:50:53.224Z,13.98
2022-08-05T22:00:56.212Z,14.23
2022-08-05T22:10:58.252Z,13.15
2022-08-05T22:21:00.149Z,13.98
2022-08-05T22:31:06.337Z,14.93
2022-08-05T22:41:09.819Z,16.00
2022-08-05T22:51:16.013Z,14.27
2022-08-05T23:01:24.424Z,13.15
2022-08-05T23:11:46.679Z,19.73
2022-08-05T23:21:52.001Z,19.60
2022-08-05T23:31:56.224Z,14.02
2022-08-05T23:41:58.551Z,13.38
2022-08-05T23:52:19.052Z,13.23
